This is the latest recevied weather packets stored in our database for station/object KI5RKU-09. If no packets are shown the sender has not sent any weather packets the latest 10 day(s).
| Time | Temp. | Humidity | Pressure | Rain* | Wind** | Luminosity | Snow |
|---|---|---|---|---|---|---|---|
| 1777087528 | 24.44° C | 53% | 1005.8 hPa | 0 mm | - | 0 W/m² | - |
| 1777084827 | 25° C | 51% | 1005.4 hPa | 0 mm | - | 0 W/m² | - |
| 1777083930 | 25.56° C | 50% | 1005.5 hPa | 0 mm | - | 0 W/m² | - |
| 1777082728 | 26.11° C | 48% | 1005.4 hPa | 0 mm | - | 0 W/m² | - |
| 1777082448 | 26.11° C | 46% | 1005.4 hPa | 0 mm | - | 0 W/m² | - |
| 1777076426 | 30.56° C | 43% | 1004.4 hPa | 0 mm | - | 33 W/m² | - |
| 1777076139 | 30.56° C | 45% | 1004.3 hPa | 0 mm | - | 42 W/m² | - |
| 1777075527 | 30.56° C | 45% | 1004.2 hPa | 0 mm | - | 58 W/m² | - |
| 1777074927 | 31.11° C | 44% | 1004.2 hPa | 0 mm | - | 70 W/m² | - |
| 1777074627 | 31.11° C | 43% | 1004.2 hPa | 0 mm | - | 72 W/m² | - |
| 1777073441 | 31.67° C | 43% | 1004.2 hPa | 0 mm | - | 236 W/m² | - |
| 1777072227 | 31.67° C | 46% | 1004.2 hPa | 0 mm | - | 371 W/m² | - |
| 1777069525 | 31.67° C | 46% | 1004.2 hPa | 0 mm | - | 515 W/m² | - |
| 1777067727 | 31.67° C | 46% | 1004.2 hPa | 0 mm | - | 619 W/m² | - |
| 1777066828 | 32.22° C | 47% | 1004.2 hPa | 0 mm | - | 654 W/m² | - |
| 1777066245 | 32.22° C | 49% | 1004.3 hPa | 0 mm | - | 659 W/m² | - |
| 1777064437 | 31.67° C | 51% | 1004.6 hPa | 0 mm | - | 148 W/m² | - |
| 1777061130 | 30.56° C | 54% | 1005.4 hPa | 0 mm | - | 680 W/m² | - |
| 1777060845 | 30.56° C | 57% | 1005.6 hPa | 0 mm | - | 104 W/m² | - |
| 1777059326 | 30.56° C | 56% | 1005.8 hPa | 0 mm | - | 265 W/m² | - |
| 1777057528 | 29.44° C | 59% | 1006.1 hPa | 0 mm | - | 88 W/m² | - |
| 1777056927 | 29.44° C | 60% | 1006.2 hPa | 0 mm | - | 211 W/m² | - |
| 1777056028 | 28.89° C | 61% | 1006.4 hPa | 0 mm | - | 98 W/m² | - |
| 1777055727 | 28.89° C | 61% | 1006.4 hPa | 0 mm | - | 155 W/m² | - |
| 1777054542 | 28.33° C | 63% | 1006.5 hPa | 0 mm | - | 98 W/m² | - |
* Rain latest hour (hover to see other rain measurements)
** Current wind speed in m/s (hover to see current wind gust speed)